Home > Products > Valid Products > TAF

000
FTUS46 KSEW 292100 AAA
TAFHQM
TAF AMD
KHQM 292100Z 2921/3018 22012KT P6SM SCT025 BKN050
     FM300600 18006KT P6SM OVC020
     FM301700 24007KT P6SM SCT020 BKN050=



000
FTUS46 KSEW 291700
TAFHQM
TAF
KHQM 291720Z 2918/3018 VRB04KT P6SM SCT010 OVC025
      TEMPO 2918/2921 BKN010 OVC025
     FM300600 18006KT P6SM OVC015
     FM301700 24007KT P6SM SCT020 BKN050=



000
FTUS46 KSEW 291700
TAFSEA
TAF
KSEA 291720Z 2918/3024 24007KT P6SM SCT020 BKN050
      TEMPO 2918/2921 BKN020 OVC040
     FM300600 18006KT P6SM OVC020
     FM301700 24007KT P6SM SCT025 BKN050=



000
FTUS46 KSEW 291700
TAFOLM
TAF
KOLM 291720Z 2918/3018 24007KT P6SM SCT020 BKN050
      TEMPO 2918/2921 BKN020 OVC040
     FM300600 VRB03KT P6SM OVC015
     FM301700 24007KT P6SM SCT025 BKN050=



000
FTUS46 KSEW 291700
TAFBFI
TAF
KBFI 291720Z 2918/3018 21005KT P6SM SCT020 BKN050
      TEMPO 2918/2921 BKN020 OVC040
     FM300600 16006KT P6SM OVC020
     FM301700 24007KT P6SM SCT025 BKN050=



000
FTUS46 KSEW 291700
TAFBLI
TAF
KBLI 291720Z 2918/3018 18008KT P6SM SCT020 OVC050
      TEMPO 2918/2922 5SM -RA BR BKN015 OVC030
     FM300600 18008KT P6SM OVC020
     FM301700 18008KT P6SM SCT025 BKN050=



000
FTUS46 KSEW 291700
TAFPAE
TAF
KPAE 291720Z 2918/3018 VRB03KT P6SM SCT015 OVC030
      TEMPO 2918/2922 5SM -RA BR BKN015 OVC030
     FM300600 18006KT P6SM OVC015
     FM301700 24007KT P6SM SCT025 BKN050=



000
FTUS46 KSEW 291700
TAFCLM
TAF
KCLM 291720Z 2918/3018 VRB03KT P6SM SCT020 OVC050
      TEMPO 2918/2922 5SM -RA BR BKN020 OVC050
     FM300000 28008KT P6SM SCT025 BKN050
     FM300600 28006KT P6SM OVC020
     FM301700 24007KT P6SM SCT025 BKN050=



000
FTUS46 KSEW 291600 AAB
TAFPAE
TAF AMD
KPAE 291602Z 2916/3012 VRB04KT P6SM SCT006 BKN015 OVC040
      TEMPO 2916/2918 5SM -DZ BR BKN006 OVC012
     FM291800 VRB04KT P6SM SCT015 OVC040
      TEMPO 2918/2921 BKN015 OVC040
     FM292100 33006KT P6SM SCT020 OVC040
     FM300600 18006KT P6SM OVC015=



000
FTUS46 KSEW 291600 AAB
TAFBFI
TAF AMD
KBFI 291601Z 2916/3012 23005KT P6SM SCT012 BKN045
      TEMPO 2916/2918 BKN012 OVC040
     FM291800 23007KT P6SM SCT018 OVC040
      TEMPO 2918/2921 BKN018 OVC040
     FM292100 23008KT P6SM SCT025 BKN050
     FM300600 16006KT P6SM OVC025=



000
FTUS46 KSEW 291600 AAC
TAFSEA
TAF AMD
KSEA 291600Z 2916/3018 23005KT P6SM SCT010 BKN045
      TEMPO 2916/2918 BKN010 OVC040
     FM291800 22007KT P6SM SCT015 OVC040
      TEMPO 2918/2921 BKN015 OVC040
     FM292100 24008KT P6SM SCT020 BKN050
     FM300600 18006KT P6SM OVC020=



000
FTUS46 KSEW 291500 AAB
TAFHQM
TAF AMD
KHQM 291508Z 2915/3012 14005KT P6SM SCT008 OVC025
      TEMPO 2915/2919 5SM -RA BR BKN008 OVC015
     FM292000 25010KT P6SM SCT015 BKN030=



000
FTUS46 KSEW 291400 AAB
TAFOLM
TAF AMD
KOLM 291432Z 2915/3012 20005KT P6SM SCT010 OVC050
      TEMPO 2915/2918 6SM BR BKN010 OVC050
     FM291800 22004KT P6SM SCT015 OVC040
     FM292100 23006KT P6SM BKN040=



000
FTUS46 KSEW 291300 AAA
TAFPAE
TAF AMD
KPAE 291310Z 2913/3012 VRB03KT P6SM OVC010
     FM291500 VRB03KT P6SM OVC007
     FM291800 20007KT P6SM OVC015
     FM292100 23006KT P6SM VCSH BKN025 BKN050=



000
FTUS46 KSEW 291300 AAB
TAFBLI
TAF AMD
KBLI 291309Z 2913/3012 17008KT P6SM SCT025 BKN060 OVC130
      TEMPO 2913/2915 BKN025 OVC060
     FM291500 17008KT P6SM BKN025 OVC040
     FM291700 17008KT P6SM VCSH OVC020
     FM292000 17009KT P6SM -SHRA BKN025 OVC050=



000
FTUS46 KSEW 291300 AAB
TAFSEA
TAF AMD
KSEA 291308Z 2913/3018 23005KT P6SM OVC005
     FM291700 22007KT P6SM OVC015
     FM292000 24008KT P6SM BKN030 BKN050=



000
FTUS46 KSEW 291200 AAA
TAFHQM
TAF AMD
KHQM 291214Z 2912/3012 24005KT 5SM BR OVC005
      TEMPO 2912/2916 1 1/2SM -DZ BR OVC002
     FM291700 24008KT P6SM VCSH BKN010 OVC020
     FM292000 25010KT P6SM BKN020=



000
FTUS46 KSEW 291200 AAA
TAFOLM
TAF AMD
KOLM 291213Z 2912/3012 20005KT 6SM BR SCT006 SCT015
      TEMPO 2912/2914 4SM BR BKN006 BKN015
     FM291400 20005KT 6SM BR BKN006 OVC015
     FM291800 22004KT P6SM BKN015 OVC020
     FM292100 23006KT P6SM BKN030 BKN050=



000
FTUS46 KSEW 291200 AAA
TAFCLM
TAF AMD
KCLM 291211Z 2912/3012 25005KT P6SM SCT022 BKN050 OVC130
      TEMPO 2912/2914 BKN022 OVC050
     FM291400 25005KT P6SM OVC020
     FM291700 29007KT P6SM VCSH BKN015 OVC020
     FM292100 33007KT P6SM VCSH BKN025 OVC040=



000
FTUS46 KSEW 291200 AAA
TAFBLI
TAF AMD
KBLI 291210Z 2912/3012 17008KT P6SM OVC025
     FM291400 17008KT P6SM OVC015
     FM291700 17008KT P6SM VCSH OVC020
     FM292000 17009KT P6SM -SHRA BKN025 OVC050=



000
FTUS46 KSEW 291200 AAA
TAFSEA
TAF AMD
KSEA 291209Z 2912/3018 23005KT P6SM OVC003
     FM291700 22007KT P6SM BKN009 OVC020
     FM292000 24008KT P6SM BKN030 BKN050=



000
FTUS46 KSEW 291200 AAA
TAFBFI
TAF AMD
KBFI 291209Z 2912/3012 20005KT P6SM OVC007
     FM291700 22007KT P6SM BKN012 OVC025
     FM292000 24008KT P6SM BKN030 BKN050=



000
FTUS46 KSEW 291100
TAFCLM
TAF
KCLM 291120Z 2912/3012 27006KT P6SM SCT015 OVC020
     FM291700 29007KT P6SM VCSH BKN015 OVC020
     FM292100 33007KT P6SM VCSH BKN025 OVC040=



000
FTUS46 KSEW 291100
TAFSEA
TAF
KSEA 291120Z 2912/3018 24005KT P6SM OVC007
     FM291700 22007KT P6SM BKN015 OVC020
     FM292000 24008KT P6SM BKN030 BKN050=



000
FTUS46 KSEW 291100
TAFOLM
TAF
KOLM 291120Z 2912/3012 20005KT P6SM OVC010
     FM291800 22004KT P6SM BKN015 OVC020
     FM292100 23006KT P6SM BKN030 BKN050=



000
FTUS46 KSEW 291100
TAFHQM
TAF
KHQM 291120Z 2912/3012 25005KT P6SM OVC006
      TEMPO 2912/2916 2SM BR OVC002
     FM291700 24008KT P6SM VCSH BKN010 OVC020
     FM292000 25010KT P6SM BKN020=



000
FTUS46 KSEW 291100
TAFBFI
TAF
KBFI 291120Z 2912/3012 20006KT P6SM OVC012
     FM291700 22007KT P6SM BKN020 OVC025
     FM292000 24008KT P6SM BKN030 BKN050=



000
FTUS46 KSEW 291100
TAFBLI
TAF
KBLI 291120Z 2912/3012 17006KT P6SM SCT030 BKN040
     FM291400 17008KT P6SM OVC015
     FM291700 17008KT P6SM VCSH OVC020
     FM292000 17009KT P6SM -SHRA BKN025 OVC050=



000
FTUS46 KSEW 291100
TAFPAE
TAF
KPAE 291120Z 2912/3012 VRB04KT P6SM OVC014
      TEMPO 2912/2914 OVC007
     FM291400 15003KT P6SM OVC007
     FM291700 20007KT P6SM OVC015
     FM292100 23006KT P6SM VCSH BKN025 BKN050=



000
FTUS46 KSEW 290900 AAA
TAFSEA
TAF AMD
KSEA 290902Z 2909/3012 21005KT P6SM SCT011 BKN250
      TEMPO 2909/2913 BKN011
     FM291300 19006KT P6SM OVC011
     FM291700 22007KT P6SM BKN015 OVC020
     FM292000 24008KT P6SM BKN030 OVC050=



000
FTUS46 KSEW 290500
TAFOLM
TAF
KOLM 290536Z 2906/3006 20005KT P6SM BKN250
     FM290900 20003KT P6SM OVC020
     FM291300 19003KT 5SM BR OVC005
     FM291700 22004KT P6SM BKN010 OVC020
     FM292100 23006KT P6SM BKN020 OVC030=



000
FTUS46 KSEW 290500
TAFHQM
TAF
KHQM 290536Z 2906/3006 25005KT 5SM BR BKN002 OVC015
      TEMPO 2906/2910 2SM BR OVC002
     FM291000 21003KT 1SM BR OVC002
     FM291700 24008KT P6SM VCSH BKN010 OVC020=



000
FTUS46 KSEW 290500
TAFBLI
TAF
KBLI 290536Z 2906/3006 18008KT P6SM OVC060
     FM291100 17006KT P6SM OVC025
     FM291400 17008KT P6SM OVC015
     FM291700 17008KT P6SM VCSH OVC020
     FM292000 17009KT P6SM -SHRA BKN025 OVC050=



000
FTUS46 KSEW 290500
TAFBFI
TAF
KBFI 290536Z 2906/3006 21005KT P6SM SCT045 BKN250
     FM291100 20006KT P6SM OVC030
     FM291300 19006KT P6SM OVC015
     FM291700 22007KT P6SM BKN020 OVC025
     FM292000 24008KT P6SM BKN030 OVC050=



000
FTUS46 KSEW 290500
TAFPAE
TAF
KPAE 290536Z 2906/3006 34005KT P6SM BKN025
     FM291100 18004KT P6SM OVC020
     FM291300 15003KT P6SM OVC008
     FM291700 20007KT P6SM BKN008 OVC020
     FM292100 23006KT P6SM VCSH BKN020 OVC050=



000
FTUS46 KSEW 290500
TAFSEA
TAF
KSEA 290536Z 2906/3012 21005KT P6SM SCT030 BKN250
     FM291100 20006KT P6SM OVC025
     FM291300 19006KT P6SM OVC012
     FM291700 22007KT P6SM BKN015 OVC020
     FM292000 24008KT P6SM BKN030 OVC050=



000
FTUS46 KSEW 290500
TAFCLM
TAF
KCLM 290536Z 2906/3006 28006KT P6SM SCT025
      TEMPO 2906/2910 BKN025
     FM291000 27006KT P6SM OVC020
     FM291700 29007KT P6SM VCSH OVC020
     FM292100 33007KT P6SM VCSH BKN025 OVC040=



000
FTUS46 KSEW 290300 AAA
TAFSEA
TAF AMD
KSEA 290300Z 2903/3006 21005KT P6SM SCT030 BKN250
     FM291100 20006KT P6SM OVC020
     FM291300 19006KT P6SM OVC008
     FM291700 22007KT P6SM BKN010 OVC020
     FM292000 24008KT P6SM BKN030 OVC050=



000
FTUS46 KSEW 282300
TAFOLM
TAF
KOLM 282339Z 2900/2924 24008KT P6SM BKN035
     FM290200 25005KT P6SM SCT035
     FM290900 20003KT P6SM OVC020
     FM291300 19003KT 5SM BR OVC005
     FM291700 22004KT P6SM BKN010 OVC020
     FM292100 23006KT P6SM BKN020 OVC030=



000
FTUS46 KSEW 282300
TAFBFI
TAF
KBFI 282339Z 2900/2924 18006KT P6SM SCT030 BKN250
     FM290100 24005KT P6SM FEW045 BKN250
     FM291100 16004KT P6SM OVC025
     FM291300 17004KT P6SM OVC015
     FM291700 19007KT P6SM BKN015 OVC025
     FM292000 19007KT P6SM BKN030 OVC050=



000
FTUS46 KSEW 282300
TAFPAE
TAF
KPAE 282339Z 2900/2924 26004KT P6SM FEW030
     FM290100 34005KT P6SM BKN040
     FM291100 18004KT P6SM OVC020
     FM291300 15003KT P6SM OVC008
     FM291700 20007KT P6SM BKN008 OVC020
     FM292100 23006KT P6SM VCSH BKN020 OVC050=



000
FTUS46 KSEW 282300
TAFHQM
TAF
KHQM 282339Z 2900/2924 23008KT P6SM BKN016 OVC020
     FM290400 23006KT P6SM BKN025
     FM291000 23003KT P6SM BKN005 OVC015
     FM291200 21003KT 1SM BR OVC003
     FM291700 24008KT P6SM VCSH BKN010 OVC020=



000
FTUS46 KSEW 282300
TAFSEA
TAF
KSEA 282339Z 2900/3006 22008KT P6SM SCT025 BKN250
     FM290100 21005KT P6SM FEW030 BKN250
     FM291100 20006KT P6SM OVC020
     FM291300 19006KT P6SM OVC008
     FM291700 22007KT P6SM BKN010 OVC020
     FM292000 24008KT P6SM BKN030 OVC050=



000
FTUS46 KSEW 282300
TAFBLI
TAF
KBLI 282339Z 2900/2924 18010KT P6SM SKC
     FM291100 17006KT P6SM OVC025
     FM291400 17008KT P6SM OVC015
     FM291700 17008KT P6SM VCSH OVC020
     FM292000 17009KT P6SM SHRA BKN025 OVC050=



000
FTUS46 KSEW 282300
TAFCLM
TAF
KCLM 282339Z 2900/2924 31008KT P6SM BKN030
     FM290600 28006KT P6SM OVC020
     FM291300 27006KT P6SM OVC008
     FM291700 29007KT P6SM VCSH OVC020
     FM292100 33007KT P6SM VCSH BKN025 OVC040=



000
FTUS46 KSEW 281700 RRA
TAFBFI
TAF
KBFI 281750Z 2818/2918 16007KT P6SM OVC020
     FM282000 21008KT P6SM BKN035
     FM290100 24005KT P6SM SCT045
     FM291100 16004KT P6SM OVC025
     FM291300 17004KT P6SM OVC015
     FM291700 19007KT P6SM BKN015 OVC025=



000
FTUS46 KSEW 281700 RRA
TAFBLI
TAF
KBLI 281750Z 2818/2918 17010KT P6SM BKN015
     FM282000 17010KT P6SM SCT030
     FM291100 17006KT P6SM OVC025
     FM291400 17008KT P6SM OVC015
     FM291700 18008KT P6SM OVC020=



000
FTUS46 KSEW 281700 RRA
TAFPAE
TAF
KPAE 281750Z 2818/2918 26005KT P6SM BKN015 OVC020
     FM282100 29004KT P6SM BKN030
     FM290100 35005KT P6SM BKN040
     FM291100 18004KT P6SM OVC020
     FM291300 15003KT P6SM OVC008
     FM291700 20007KT P6SM BKN008 OVC020=



000
FTUS46 KSEW 281700 RRA
TAFSEA
TAF
KSEA 281750Z 2818/2924 17008KT P6SM BKN010 OVC015
     FM282000 22008KT P6SM BKN030
     FM290100 23005KT P6SM BKN040
     FM291100 20006KT P6SM OVC020
     FM291300 19006KT P6SM OVC008
     FM291700 22007KT P6SM BKN010 OVC020
     FM292000 24008KT P6SM BKN030 OVC060=



000
FTUS46 KSEW 281700 RRA
TAFHQM
TAF
KHQM 281750Z 2818/2918 21010KT 1SM BR OVC003
     FM282000 25008KT P6SM OVC011
     FM282100 25008KT P6SM BKN016 OVC020
     FM290400 23006KT P6SM BKN025
     FM291000 23003KT P6SM BKN005 OVC015
     FM291200 21003KT 1SM BR OVC003=



000
FTUS46 KSEW 281700 RRA
TAFCLM
TAF
KCLM 281750Z 2818/2918 30006KT P6SM OVC007
     FM282000 33008KT P6SM BKN030
     FM282300 31008KT P6SM SCT040
     FM290700 28006KT P6SM OVC020
     FM291300 27006KT P6SM OVC008
     FM291700 29007KT P6SM BKN020=



000
FTUS46 KSEW 281700 RRA
TAFOLM
TAF
KOLM 281750Z 2818/2918 19008KT P6SM BKN008 BKN015
     FM282000 22008KT P6SM BKN030
     FM290100 25005KT P6SM SCT035
     FM290900 20003KT P6SM OVC020
     FM291300 19003KT P6SM OVC005
     FM291700 22004KT P6SM BKN010 OVC020=



000
FTUS46 KSEW 281500 AAB
TAFSEA
TAF AMD
KSEA 281509Z 2815/2918 19006KT P6SM OVC008
     FM281800 22008KT P6SM BKN020
     FM282000 22008KT P6SM BKN030
     FM290100 23005KT P6SM BKN040
     FM291100 20006KT P6SM OVC020
     FM291300 19006KT P6SM OVC008=



000
FTUS46 KSEW 281300 AAB
TAFOLM
TAF AMD
KOLM 281350Z 2814/2912 VRB03KT 6SM BR SCT008 SCT025
      TEMPO 2814/2815 4SM BR BKN008 BKN025
     FM281500 VRB03KT 5SM BR OVC008
     FM281800 22008KT P6SM BKN022
     FM282000 20008KT P6SM BKN030=



000
FTUS46 KSEW 281300 AAA
TAFOLM
TAF AMD
KOLM 281344Z 2814/2912 VRB03KT P6SM SCT008 SCT025
      TEMPO 2814/2815 BKN008 BKN025
     FM281500 VRB03KT P6SM OVC008
     FM281800 22008KT P6SM BKN022
     FM282000 20008KT P6SM BKN030=



000
FTUS46 KSEW 281300 AAA
TAFBFI
TAF AMD
KBFI 281323Z 2813/2912 19005KT P6SM SCT009
      TEMPO 2813/2815 BKN009
     FM281500 19005KT P6SM OVC009
     FM281800 22008KT P6SM BKN025
     FM282000 22008KT P6SM BKN035=



000
FTUS46 KSEW 281300 AAA
TAFSEA
TAF AMD
KSEA 281322Z 2813/2918 20006KT P6SM SCT007
      TEMPO 2813/2814 BKN007
     FM281400 20006KT P6SM OVC007
     FM281800 22008KT P6SM BKN020
     FM282000 22008KT P6SM BKN030=



000
FTUS46 KSEW 281300 AAB
TAFPAE
TAF AMD
KPAE 281321Z 2813/2912 VRB03KT P6SM SCT006 SCT060
      TEMPO 2813/2814 BKN006 BKN060
     FM281400 18004KT P6SM OVC006
     FM281800 21005KT P6SM BKN015
     FM282100 34004KT P6SM VCSH BKN030=



000
FTUS46 KSEW 281300 AAA
TAFBLI
TAF AMD
KBLI 281320Z 2813/2912 17009KT P6SM SCT007 SCT100
      TEMPO 2813/2815 BKN007 BKN100
     FM281500 17009KT P6SM OVC007
     FM281800 17007KT P6SM BKN020
     FM282000 17007KT P6SM BKN030=



000
FTUS46 KSEW 281300 AAA
TAFCLM
TAF AMD
KCLM 281320Z 2813/2912 28005KT P6SM OVC005
     FM281700 29006KT P6SM SCT009 BKN025
     FM282000 29008KT P6SM SCT030=



000
FTUS46 KSEW 281200 AAA
TAFPAE
TAF AMD
KPAE 281234Z 2813/2912 04004KT P6SM SCT006 BKN060
      TEMPO 2813/2814 BKN006
     FM281400 18004KT P6SM OVC006
     FM281800 21005KT P6SM BKN015
     FM282100 34004KT P6SM VCSH BKN030=



000
FTUS46 KSEW 281200 AAA
TAFHQM
TAF AMD
KHQM 281233Z 2813/2912 21010KT 4SM BR OVC003
      TEMPO 2813/2816 1 1/2SM BR
     FM282000 25008KT P6SM OVC011
     FM282100 25008KT P6SM BKN016=



000
FTUS46 KSEW 281100
TAFBLI
TAF
KBLI 281123Z 2812/2912 18008KT P6SM SCT007 BKN070
      TEMPO 2812/2814 BKN007
     FM281400 18008KT P6SM OVC007
     FM281800 17007KT P6SM BKN020
     FM282000 17007KT P6SM BKN030=



000
FTUS46 KSEW 281100
TAFCLM
TAF
KCLM 281123Z 2812/2912 27007KT P6SM SCT007
      TEMPO 2812/2814 BKN007
     FM281400 29006KT P6SM OVC007
     FM281700 29006KT P6SM SCT015 BKN025
     FM282000 29008KT P6SM SCT030=



000
FTUS46 KSEW 281100
TAFPAE
TAF
KPAE 281123Z 2812/2912 04004KT P6SM SCT012 BKN060
      TEMPO 2812/2814 BKN012
     FM281400 18004KT P6SM OVC006
     FM281800 21005KT P6SM BKN015
     FM282100 34004KT P6SM VCSH BKN030=



000
FTUS46 KSEW 281100
TAFOLM
TAF
KOLM 281123Z 2812/2912 18004KT P6SM OVC007
     FM281800 22008KT P6SM BKN022
     FM282000 20008KT P6SM BKN030=



000
FTUS46 KSEW 281100
TAFSEA
TAF
KSEA 281123Z 2812/2918 22006KT P6SM SCT008
      TEMPO 2812/2813 BKN008
     FM281300 20008KT P6SM OVC008
     FM281800 22008KT P6SM BKN020
     FM282000 22008KT P6SM BKN030=



000
FTUS46 KSEW 281100
TAFHQM
TAF
KHQM 281123Z 2812/2912 23010KT 2SM BR OVC004
      TEMPO 2812/2816 1SM BR OVC002
     FM282000 25008KT P6SM OVC011
     FM282100 25008KT P6SM BKN016=



000
FTUS46 KSEW 281100
TAFBFI
TAF
KBFI 281123Z 2812/2912 22006KT P6SM SCT012
      TEMPO 2812/2813 BKN012
     FM281300 20008KT P6SM OVC012
     FM281800 22008KT P6SM BKN025
     FM282000 22008KT P6SM BKN035=



000
FTUS46 KSEW 280900 AAA
TAFOLM
TAF AMD
KOLM 280912Z 2809/2906 22008KT P6SM SCT250
     FM281000 22008KT P6SM OVC007
     FM281800 22008KT P6SM BKN022
     FM282000 22008KT P6SM BKN050=



000
FTUS46 KSEW 280900 AAA
TAFSEA
TAF AMD
KSEA 280911Z 2809/2912 22006KT P6SM BKN070
      TEMPO 2809/2812 BKN008
     FM281200 20008KT P6SM OVC008
     FM281700 22008KT P6SM BKN020
     FM282000 22008KT P6SM BKN035=



000
FTUS46 KSEW 280600 AAA
TAFCLM
TAF AMD
KCLM 280659Z 2807/2906 29009KT P6SM SCT007
      TEMPO 2807/2811 BKN007
     FM281100 29008KT P6SM OVC007
     FM281700 29008KT P6SM SCT015 OVC022
     FM281900 29008KT P6SM SCT050=



000
FTUS46 KSEW 280500
TAFHQM
TAF
KHQM 280524Z 2806/2906 25012KT 6SM BR OVC004
      TEMPO 2812/2816 3SM -DZ OVC002
     FM282000 25008KT P6SM OVC011
     FM282300 25008KT P6SM BKN016=



000
FTUS46 KSEW 280500
TAFOLM
TAF
KOLM 280524Z 2806/2906 22008KT P6SM SCT250
     FM281000 22008KT P6SM OVC009
     FM281800 22008KT P6SM BKN022
     FM282000 22008KT P6SM BKN050=



000
FTUS46 KSEW 280500
TAFCLM
TAF
KCLM 280524Z 2806/2906 29008KT P6SM SCT250
     FM281100 29008KT P6SM OVC011
     FM281700 29008KT P6SM SCT015 OVC022
     FM281900 29008KT P6SM SCT050=



000
FTUS46 KSEW 280500
TAFSEA
TAF
KSEA 280524Z 2806/2912 24004KT P6SM SCT070 SCT250
     FM280800 22006KT P6SM BKN070
     FM281300 20008KT P6SM OVC012
     FM281700 22008KT P6SM BKN022
     FM282000 22008KT P6SM BKN050=



000
FTUS46 KSEW 280500
TAFBLI
TAF
KBLI 280524Z 2806/2906 18008KT P6SM BKN090
     FM281400 18008KT P6SM OVC012
     FM281800 18007KT P6SM BKN025
     FM282000 18007KT P6SM BKN050=



000
FTUS46 KSEW 280500
TAFBFI
TAF
KBFI 280524Z 2806/2906 00000KT P6SM SCT070 SCT250
     FM280800 18006KT P6SM BKN070
     FM281300 18006KT P6SM OVC016
     FM281700 18006KT P6SM BKN026
     FM282000 18006KT P6SM BKN050=



000
FTUS46 KSEW 280500
TAFPAE
TAF
KPAE 280524Z 2806/2906 36009KT P6SM OVC070
     FM281300 VRB03KT P6SM OVC008
     FM281800 VRB03KT P6SM BKN012
     FM282000 VRB03KT P6SM BKN040=



000
FTUS46 KSEW 280300 AAA
TAFSEA
TAF AMD
KSEA 280305Z 2803/2906 29006KT P6SM FEW050 SCT250
     FM280600 20006KT P6SM SCT080 SCT250
     FM281300 20008KT P6SM BKN012
     FM281700 22008KT P6SM BKN022
     FM282000 22008KT P6SM BKN050=



000
FTUS46 KSEW 280200 AAA
TAFCLM
TAF AMD
KCLM 280230Z 2803/2824 29012KT P6SM SCT250
     FM281100 29008KT P6SM OVC011
     FM281700 29008KT P6SM SCT015 OVC022
     FM281900 29008KT P6SM SCT050=



000
FTUS46 KSEW 272300
TAFOLM
TAF
KOLM 272334Z 2800/2824 VRB03KT P6SM SCT250
     FM280600 22008KT P6SM SCT250
     FM281200 22008KT P6SM BKN012 OVC020
     FM281800 22008KT P6SM BKN022
     FM282000 22008KT P6SM BKN050=



000
FTUS46 KSEW 272300
TAFPAE
TAF
KPAE 272334Z 2800/2824 34008KT P6SM SCT250
     FM281300 VRB03KT P6SM BKN008
     FM281600 VRB03KT P6SM BKN012
     FM282000 VRB03KT P6SM BKN050=



000
FTUS46 KSEW 272300
TAFSEA
TAF
KSEA 272334Z 2800/2906 29006KT P6SM SCT250
     FM280600 20006KT P6SM SCT250
     FM281300 20008KT P6SM BKN012
     FM281700 22008KT P6SM BKN022
     FM282000 22008KT P6SM BKN050=



000
FTUS46 KSEW 272300
TAFBLI
TAF
KBLI 272334Z 2800/2824 18008KT P6SM SCT250
     FM281400 18008KT P6SM SCT050 SCT250=



000
FTUS46 KSEW 272300
TAFHQM
TAF
KHQM 272334Z 2800/2824 25012KT 6SM BR SCT008
     FM280400 25012KT 6SM BR OVC006
      TEMPO 2812/2816 3SM -DZ OVC004
     FM282000 25008KT P6SM OVC011
     FM282300 25008KT P6SM BKN016=



000
FTUS46 KSEW 272300
TAFBFI
TAF
KBFI 272334Z 2800/2824 31006KT P6SM SCT250
     FM280700 18006KT P6SM SCT250
     FM281300 18006KT P6SM BKN016
     FM281700 18006KT P6SM BKN026
     FM282000 18006KT P6SM BKN050=



000
FTUS46 KSEW 272300
TAFCLM
TAF
KCLM 272334Z 2800/2824 29008KT P6SM SCT250
     FM281100 29008KT P6SM OVC011
     FM281700 29008KT P6SM SCT015 OVC022
     FM281900 29008KT P6SM SCT050=



000
FTUS46 KSEW 272100 AAB
TAFSEA
TAF AMD
KSEA 272153Z 2722/2824 19004KT P6SM SKC
     FM280100 25007KT P6SM SKC
     FM281300 20006KT P6SM BKN012
     FM281700 22007KT P6SM BKN022
     FM282100 22008KT P6SM BKN040=



000
FTUS46 KSEW 271900 AAA
TAFHQM
TAF AMD
KHQM 271931Z 2720/2818 23012KT P6SM FEW006
     FM272100 22010KT P6SM SCT250
     FM280400 25010KT P6SM OVC005
     FM280900 25008KT 2SM BR OVC002=



000
FTUS46 KSEW 271800 AAA
TAFSEA
TAF AMD
KSEA 271845Z 2719/2824 19004KT P6SM SKC
     FM280000 25007KT P6SM FEW250
     FM280300 32006KT P6SM SCT060 SCT250
     FM280600 24008KT P6SM SCT040
     FM281200 20006KT P6SM BKN025 OVC040
     FM281800 22007KT P6SM BKN030 OVC060
     FM282100 22008KT P6SM BKN040=



000
FTUS46 KSEW 271700
TAFHQM
TAF
KHQM 271733Z 2718/2818 24006KT 6SM BR OVC005
     FM272100 22010KT P6SM SCT250
     FM280400 25010KT P6SM OVC005
     FM280900 25008KT 2SM BR OVC002=



000
FTUS46 KSEW 271700
TAFBLI
TAF
KBLI 271733Z 2718/2818 18005KT P6SM SKC
     FM280000 17006KT P6SM SCT060 SCT250
     FM281200 17007KT P6SM BKN025 OVC040=



000
FTUS46 KSEW 271700
TAFOLM
TAF
KOLM 271733Z 2718/2818 22004KT P6SM SKC
     FM280000 22004KT P6SM SCT060 SCT250
     FM280300 25006KT P6SM SCT060 SCT250
     FM280600 22008KT P6SM SCT030
     FM281200 20006KT P6SM BKN015 OVC025=



000
FTUS46 KSEW 271700
TAFCLM
TAF
KCLM 271733Z 2718/2818 30004KT P6SM SKC
     FM280000 30010KT P6SM SCT060 SCT250
     FM280300 29007KT P6SM SCT035
     FM280600 28006KT P6SM OVC025
     FM281200 29004KT P6SM BKN015 OVC025=



000
FTUS46 KSEW 271700
TAFBFI
TAF
KBFI 271733Z 2718/2818 VRB03KT P6SM SKC
     FM272000 25006KT P6SM SKC
     FM280300 28006KT P6SM SCT060 SCT250
     FM280600 18005KT P6SM SCT050
     FM281200 16004KT P6SM BKN030 OVC050=



000
FTUS46 KSEW 271700
TAFPAE
TAF
KPAE 271733Z 2718/2818 VRB03KT P6SM SKC
     FM272000 29006KT P6SM SKC
     FM280000 36006KT P6SM SCT060 SCT250
     FM280600 02004KT P6SM SCT040
     FM281000 VRB04KT P6SM BKN015 OVC030=



000
FTUS46 KSEW 271700
TAFSEA
TAF
KSEA 271733Z 2718/2824 25004KT P6SM SKC
     FM280000 28007KT P6SM FEW250
     FM280300 32006KT P6SM SCT060 SCT250
     FM280600 24008KT P6SM SCT040
     FM281200 20006KT P6SM BKN025 OVC040
     FM281800 22007KT P6SM BKN030 OVC060
     FM282100 22008KT P6SM BKN040=



000
FTUS46 KSEW 271600 AAA
TAFOLM
TAF AMD
KOLM 271655Z 2717/2812 22004KT P6SM SKC
     FM280000 22004KT P6SM SCT060 SCT250=



000
FTUS46 KSEW 271500 AAA
TAFSEA
TAF AMD
KSEA 271502Z 2715/2818 00000KT P6SM SKC
     FM271800 28004KT P6SM SKC
     FM280000 32006KT P6SM SCT060 SCT250
     FM281200 03004KT P6SM BKN025 OVC050=



000
FTUS46 KSEW 271400 AAA
TAFCLM
TAF AMD
KCLM 271432Z 2715/2812 28005KT P6SM SCT002
      TEMPO 2715/2717 1/2SM FG BKN002
     FM271700 28004KT P6SM SKC
     FM280000 30010KT P6SM SCT060 SCT250=



000
FTUS46 KSEW 271100
TAFCLM
TAF
KCLM 271124Z 2712/2812 28005KT P6SM BKN003
      TEMPO 2712/2716 1/2SM FG BKN002
     FM271700 28004KT P6SM SKC
     FM280000 30010KT P6SM SCT060 SCT250=



000
FTUS46 KSEW 271100
TAFPAE
TAF
KPAE 271124Z 2712/2812 05005KT P6SM SKC
     FM271800 30004KT P6SM SKC
     FM280000 36006KT P6SM SCT060 SCT250=



000
FTUS46 KSEW 271100
TAFSEA
TAF
KSEA 271124Z 2712/2818 04005KT P6SM SKC
     FM271800 28004KT P6SM SKC
     FM280000 32006KT P6SM SCT060 SCT250
     FM281200 03004KT P6SM BKN025 OVC050=



000
FTUS46 KSEW 271100
TAFHQM
TAF
KHQM 271124Z 2712/2812 24006KT 5SM BR OVC003
      TEMPO 2712/2716 2SM BR
     FM271900 22006KT P6SM SCT250
     FM280400 25010KT P6SM OVC005
     FM280900 25010KT 2SM BR OVC002=



000
FTUS46 KSEW 271100
TAFBLI
TAF
KBLI 271124Z 2712/2812 18004KT P6SM FEW100
     FM271400 18004KT P6SM MIFG FEW001
     FM271600 18005KT P6SM SKC
     FM280000 17006KT P6SM SCT060 SCT250=



000
FTUS46 KSEW 271100
TAFOLM
TAF
KOLM 271124Z 2712/2812 00000KT P6SM SCT005
      TEMPO 2712/2714 1SM BR BKN002
     FM271400 00000KT 1SM BR BKN002
      TEMPO 2714/2716 1/2SM FG BKN001
     FM271900 22004KT P6SM SKC
     FM280000 22004KT P6SM SCT060 SCT250=



000
FTUS46 KSEW 271100
TAFBFI
TAF
KBFI 271124Z 2712/2812 04005KT P6SM SKC
     FM271800 28004KT P6SM SKC
     FM280000 32006KT P6SM SCT060 SCT250=



000
FTUS46 KSEW 270900 AAA
TAFHQM
TAF AMD
KHQM 270917Z 2709/2806 24006KT 5SM BR OVC002
     FM271200 00000KT 1/2SM FG OVC002
     FM271900 22006KT P6SM SCT250=



000
FTUS46 KSEW 270900 AAA
TAFSEA
TAF AMD
KSEA 270903Z 2709/2812 04007KT P6SM SKC
     FM271800 28004KT P6SM SKC=



000
FTUS46 KSEW 270500
TAFOLM
TAF
KOLM 270524Z 2706/2806 00000KT P6SM SKC
     FM271300 00000KT P6SM BCFG SCT001
      TEMPO 2713/2716 1SM BCFG BKN001
     FM271700 22004KT P6SM SKC=



000
FTUS46 KSEW 270500
TAFPAE
TAF
KPAE 270524Z 2706/2806 36004KT P6SM SKC
     FM271300 VRB03KT P6SM SKC
     FM271800 36005KT P6SM SKC=



000
FTUS46 KSEW 270500
TAFHQM
TAF
KHQM 270524Z 2706/2806 24006KT P6SM BKN005
      TEMPO 2706/2709 5SM BR OVC004
     FM270900 00000KT 1/2SM FG OVC002
     FM271900 22006KT P6SM SCT250=



000
FTUS46 KSEW 270500
TAFBLI
TAF
KBLI 270524Z 2706/2806 00000KT P6SM SCT120
     FM271200 00000KT P6SM MIFG FEW001
     FM271600 18005KT P6SM SKC=



000
FTUS46 KSEW 270500
TAFCLM
TAF
KCLM 270524Z 2706/2806 28005KT P6SM SKC
     FM271000 28004KT P6SM VCFG FEW002
     FM271200 28004KT 1SM BCFG OVC001
     FM271700 VRB05KT P6SM SCT250=



000
FTUS46 KSEW 270500
TAFSEA
TAF
KSEA 270524Z 2706/2812 02005KT P6SM SKC
     FM270900 VRB03KT P6SM SKC
     FM271800 28004KT P6SM SKC=



000
FTUS46 KSEW 270500
TAFBFI
TAF
KBFI 270524Z 2706/2806 00000KT P6SM SKC
     FM271400 VRB03KT P6SM SKC
     FM271800 29005KT P6SM SKC=



000
FTUS46 KSEW 270300 AAA
TAFSEA
TAF AMD
KSEA 270301Z 2703/2806 35005KT P6SM SKC
     FM270900 VRB03KT P6SM SKC
     FM271400 18003KT P6SM SCT005
     FM271800 28006KT P6SM SCT250=



000
FTUS46 KSEW 262300
TAFSEA
TAF
KSEA 262320Z 2700/2806 30006KT P6SM SKC
     FM270300 35005KT P6SM SKC
     FM270900 VRB03KT P6SM SKC
     FM271400 18003KT P6SM SCT005
     FM271800 28006KT P6SM SCT250=



000
FTUS46 KSEW 262300
TAFBFI
TAF
KBFI 262320Z 2700/2724 30005KT P6SM SKC
     FM270400 00000KT P6SM SKC
     FM271400 VRB03KT P6SM FEW009
     FM271800 29005KT P6SM SCT250=



000
FTUS46 KSEW 262300
TAFHQM
TAF
KHQM 262320Z 2700/2724 25012KT P6SM SKC
     FM270300 24006KT P6SM BKN005
     FM270500 25003KT 5SM BR OVC004
     FM270900 00000KT 1/2SM FG OVC002
     FM271900 22006KT P6SM SCT250=



000
FTUS46 KSEW 262300
TAFCLM
TAF
KCLM 262320Z 2700/2724 VRB05KT P6SM SKC
     FM270200 28005KT P6SM SKC
     FM271000 28004KT P6SM VCFG FEW002
     FM271200 28004KT 1SM BCFG OVC001
     FM271700 VRB05KT P6SM SCT250=



000
FTUS46 KSEW 262300
TAFBLI
TAF
KBLI 262320Z 2700/2724 27004KT P6SM SKC
     FM270200 00000KT P6SM SKC
     FM271200 00000KT P6SM MIFG FEW001
     FM271600 18005KT P6SM SCT250=



000
FTUS46 KSEW 262300
TAFPAE
TAF
KPAE 262320Z 2700/2724 30005KT P6SM SKC
     FM270200 36004KT P6SM SKC
     FM271300 VRB03KT P6SM SCT006
     FM271800 28005KT P6SM SCT250=



000
FTUS46 KSEW 262300
TAFOLM
TAF
KOLM 262320Z 2700/2724 02006KT P6SM SKC
     FM270200 00000KT P6SM SKC
     FM271300 00000KT P6SM BCFG SCT001
      TEMPO 2713/2716 1SM BCFG BKN001
     FM271700 VRB03KT P6SM SKC=



    US Dept of Commerce
    National Oceanic and Atmospheric Administration
    National Weather Service
    1325 East West Highway
    Silver Spring, MD 20910
    Page Author: NWS Internet Services Team
Disclaimer
Information Quality
Credits
Glossary
Privacy Policy
Freedom of Information Act (FOIA)
About Us
Career Opportunities